sensor_id;sensor_type;location;lat;lon;timestamp;P1;durP1;ratioP1;P2;durP2;ratioP2
23406;SDS011;11876;53.438;18.942;2022-10-10T00:01:45;24.92;;;16.30;;
23406;SDS011;11876;53.438;18.942;2022-10-10T00:06:47;26.92;;;16.77;;
23406;SDS011;11876;53.438;18.942;2022-10-10T00:11:50;26.20;;;17.40;;
23406;SDS011;11876;53.438;18.942;2022-10-10T00:16:52;22.95;;;16.40;;
23406;SDS011;11876;53.438;18.942;2022-10-10T00:21:54;23.88;;;15.68;;
23406;SDS011;11876;53.438;18.942;2022-10-10T00:26:57;24.83;;;17.48;;
23406;SDS011;11876;53.438;18.942;2022-10-10T00:31:59;26.25;;;16.45;;
23406;SDS011;11876;53.438;18.942;2022-10-10T00:37:02;27.85;;;19.63;;
23406;SDS011;11876;53.438;18.942;2022-10-10T00:42:04;23.02;;;15.25;;
23406;SDS011;11876;53.438;18.942;2022-10-10T00:47:06;23.15;;;16.08;;
23406;SDS011;11876;53.438;18.942;2022-10-10T00:52:09;23.23;;;16.20;;
23406;SDS011;11876;53.438;18.942;2022-10-10T00:57:12;22.40;;;16.48;;
23406;SDS011;11876;53.438;18.942;2022-10-10T01:02:15;23.85;;;16.95;;
23406;SDS011;11876;53.438;18.942;2022-10-10T01:07:19;24.30;;;17.35;;
23406;SDS011;11876;53.438;18.942;2022-10-10T01:12:31;29.80;;;20.73;;
23406;SDS011;11876;53.438;18.942;2022-10-10T01:44:32;31.60;;;21.15;;
23406;SDS011;11876;53.438;18.942;2022-10-10T01:49:34;32.13;;;20.50;;
23406;SDS011;11876;53.438;18.942;2022-10-10T01:54:40;32.15;;;21.50;;
23406;SDS011;11876;53.438;18.942;2022-10-10T02:00:00;33.00;;;22.35;;
23406;SDS011;11876;53.438;18.942;2022-10-10T02:10:30;31.48;;;22.02;;
23406;SDS011;11876;53.438;18.942;2022-10-10T02:15:35;39.17;;;26.40;;
23406;SDS011;11876;53.438;18.942;2022-10-10T02:20:41;35.20;;;21.40;;
23406;SDS011;11876;53.438;18.942;2022-10-10T02:25:46;34.22;;;21.65;;
23406;SDS011;11876;53.438;18.942;2022-10-10T02:30:54;35.50;;;22.58;;
23406;SDS011;11876;53.438;18.942;2022-10-10T02:35:59;26.50;;;19.92;;
23406;SDS011;11876;53.438;18.942;2022-10-10T02:41:02;32.83;;;23.90;;
23406;SDS011;11876;53.438;18.942;2022-10-10T02:46:07;34.30;;;25.30;;
23406;SDS011;11876;53.438;18.942;2022-10-10T02:51:11;33.58;;;24.52;;
23406;SDS011;11876;53.438;18.942;2022-10-10T02:56:14;39.78;;;23.85;;
23406;SDS011;11876;53.438;18.942;2022-10-10T03:01:16;30.95;;;21.40;;
23406;SDS011;11876;53.438;18.942;2022-10-10T03:06:19;37.17;;;21.95;;
23406;SDS011;11876;53.438;18.942;2022-10-10T03:11:21;25.50;;;19.45;;
23406;SDS011;11876;53.438;18.942;2022-10-10T03:16:24;29.13;;;22.17;;
23406;SDS011;11876;53.438;18.942;2022-10-10T03:21:26;25.20;;;19.27;;
23406;SDS011;11876;53.438;18.942;2022-10-10T03:26:28;22.00;;;17.60;;
23406;SDS011;11876;53.438;18.942;2022-10-10T03:31:31;26.35;;;19.83;;
23406;SDS011;11876;53.438;18.942;2022-10-10T03:36:33;26.90;;;19.80;;
23406;SDS011;11876;53.438;18.942;2022-10-10T03:41:36;30.30;;;19.45;;
23406;SDS011;11876;53.438;18.942;2022-10-10T03:46:38;29.67;;;19.13;;
23406;SDS011;11876;53.438;18.942;2022-10-10T03:51:41;30.73;;;20.70;;
23406;SDS011;11876;53.438;18.942;2022-10-10T03:56:43;29.45;;;19.13;;
23406;SDS011;11876;53.438;18.942;2022-10-10T04:01:46;32.70;;;20.42;;
23406;SDS011;11876;53.438;18.942;2022-10-10T04:06:48;33.55;;;21.13;;
23406;SDS011;11876;53.438;18.942;2022-10-10T04:11:50;30.85;;;18.73;;
23406;SDS011;11876;53.438;18.942;2022-10-10T04:16:53;27.83;;;18.63;;
23406;SDS011;11876;53.438;18.942;2022-10-10T04:21:59;33.05;;;18.95;;
23406;SDS011;11876;53.438;18.942;2022-10-10T04:27:01;46.70;;;28.45;;
23406;SDS011;11876;53.438;18.942;2022-10-10T04:32:03;33.83;;;21.45;;
23406;SDS011;11876;53.438;18.942;2022-10-10T04:37:06;39.35;;;27.17;;
23406;SDS011;11876;53.438;18.942;2022-10-10T04:42:08;46.70;;;25.85;;
23406;SDS011;11876;53.438;18.942;2022-10-10T04:47:11;36.42;;;22.60;;
23406;SDS011;11876;53.438;18.942;2022-10-10T04:52:13;58.88;;;33.72;;
23406;SDS011;11876;53.438;18.942;2022-10-10T04:57:16;41.10;;;29.25;;
23406;SDS011;11876;53.438;18.942;2022-10-10T05:02:18;40.67;;;28.67;;
23406;SDS011;11876;53.438;18.942;2022-10-10T05:07:21;40.63;;;27.73;;
23406;SDS011;11876;53.438;18.942;2022-10-10T05:12:24;35.15;;;25.10;;
23406;SDS011;11876;53.438;18.942;2022-10-10T05:17:26;36.38;;;24.73;;
23406;SDS011;11876;53.438;18.942;2022-10-10T05:22:29;34.38;;;22.98;;
23406;SDS011;11876;53.438;18.942;2022-10-10T05:27:31;31.58;;;22.42;;
23406;SDS011;11876;53.438;18.942;2022-10-10T05:32:34;36.20;;;21.90;;
23406;SDS011;11876;53.438;18.942;2022-10-10T05:37:36;31.83;;;22.02;;
23406;SDS011;11876;53.438;18.942;2022-10-10T05:42:39;42.83;;;24.83;;
23406;SDS011;11876;53.438;18.942;2022-10-10T05:47:41;61.00;;;34.33;;
23406;SDS011;11876;53.438;18.942;2022-10-10T05:52:43;34.40;;;21.65;;
23406;SDS011;11876;53.438;18.942;2022-10-10T05:57:46;55.30;;;32.92;;
23406;SDS011;11876;53.438;18.942;2022-10-10T06:02:49;86.90;;;54.17;;
23406;SDS011;11876;53.438;18.942;2022-10-10T06:07:52;97.50;;;41.53;;
23406;SDS011;11876;53.438;18.942;2022-10-10T06:13:13;34.72;;;23.48;;
23406;SDS011;11876;53.438;18.942;2022-10-10T06:18:23;44.95;;;27.25;;
23406;SDS011;11876;53.438;18.942;2022-10-10T06:23:27;39.95;;;26.83;;
23406;SDS011;11876;53.438;18.942;2022-10-10T06:28:30;49.05;;;26.40;;
23406;SDS011;11876;53.438;18.942;2022-10-10T06:33:33;33.95;;;21.73;;
23406;SDS011;11876;53.438;18.942;2022-10-10T06:38:38;32.70;;;21.85;;
23406;SDS011;11876;53.438;18.942;2022-10-10T06:43:41;29.02;;;22.83;;
23406;SDS011;11876;53.438;18.942;2022-10-10T06:48:43;35.58;;;18.02;;
23406;SDS011;11876;53.438;18.942;2022-10-10T06:53:45;31.58;;;22.85;;
23406;SDS011;11876;53.438;18.942;2022-10-10T06:58:48;49.35;;;32.60;;
23406;SDS011;11876;53.438;18.942;2022-10-10T07:03:51;32.38;;;21.08;;
23406;SDS011;11876;53.438;18.942;2022-10-10T07:08:53;25.73;;;19.77;;
23406;SDS011;11876;53.438;18.942;2022-10-10T07:13:56;26.48;;;17.77;;
23406;SDS011;11876;53.438;18.942;2022-10-10T07:18:58;26.02;;;17.40;;
23406;SDS011;11876;53.438;18.942;2022-10-10T07:24:01;20.15;;;15.82;;
23406;SDS011;11876;53.438;18.942;2022-10-10T07:29:04;29.33;;;16.33;;
23406;SDS011;11876;53.438;18.942;2022-10-10T07:34:07;21.70;;;15.65;;
23406;SDS011;11876;53.438;18.942;2022-10-10T07:39:09;19.23;;;15.27;;
23406;SDS011;11876;53.438;18.942;2022-10-10T07:44:17;17.40;;;14.48;;
23406;SDS011;11876;53.438;18.942;2022-10-10T07:49:20;17.33;;;12.52;;
23406;SDS011;11876;53.438;18.942;2022-10-10T07:54:22;20.65;;;13.77;;
23406;SDS011;11876;53.438;18.942;2022-10-10T07:59:25;19.65;;;16.88;;
23406;SDS011;11876;53.438;18.942;2022-10-10T08:04:27;15.85;;;13.52;;
23406;SDS011;11876;53.438;18.942;2022-10-10T08:09:30;13.38;;;10.13;;
23406;SDS011;11876;53.438;18.942;2022-10-10T08:14:32;15.60;;;11.88;;
23406;SDS011;11876;53.438;18.942;2022-10-10T08:19:35;23.63;;;13.27;;
23406;SDS011;11876;53.438;18.942;2022-10-10T08:24:37;16.90;;;10.25;;
23406;SDS011;11876;53.438;18.942;2022-10-10T08:29:39;15.35;;;9.00;;
23406;SDS011;11876;53.438;18.942;2022-10-10T08:34:42;11.32;;;8.30;;
23406;SDS011;11876;53.438;18.942;2022-10-10T08:39:44;15.35;;;8.20;;
23406;SDS011;11876;53.438;18.942;2022-10-10T08:44:54;9.60;;;6.55;;
23406;SDS011;11876;53.438;18.942;2022-10-10T08:50:02;8.70;;;7.60;;
23406;SDS011;11876;53.438;18.942;2022-10-10T08:55:13;10.68;;;7.80;;
23406;SDS011;11876;53.438;18.942;2022-10-10T09:00:20;12.35;;;6.30;;
23406;SDS011;11876;53.438;18.942;2022-10-10T09:15:51;10.68;;;5.40;;
23406;SDS011;11876;53.438;18.942;2022-10-10T09:20:59;8.18;;;5.97;;
23406;SDS011;11876;53.438;18.942;2022-10-10T09:26:17;14.18;;;7.78;;
23406;SDS011;11876;53.438;18.942;2022-10-10T09:31:27;6.15;;;4.75;;
23406;SDS011;11876;53.438;18.942;2022-10-10T09:36:37;8.43;;;5.13;;
23406;SDS011;11876;53.438;18.942;2022-10-10T09:41:43;8.65;;;4.20;;
23406;SDS011;11876;53.438;18.942;2022-10-10T09:47:11;10.00;;;4.25;;
23406;SDS011;11876;53.438;18.942;2022-10-10T09:52:26;7.68;;;4.82;;
23406;SDS011;11876;53.438;18.942;2022-10-10T09:57:34;8.73;;;5.95;;
23406;SDS011;11876;53.438;18.942;2022-10-10T10:02:39;7.25;;;4.25;;
23406;SDS011;11876;53.438;18.942;2022-10-10T10:07:45;5.63;;;3.97;;
23406;SDS011;11876;53.438;18.942;2022-10-10T10:12:49;6.57;;;3.55;;
23406;SDS011;11876;53.438;18.942;2022-10-10T10:23:26;8.00;;;3.30;;
23406;SDS011;11876;53.438;18.942;2022-10-10T10:28:42;6.22;;;3.45;;
23406;SDS011;11876;53.438;18.942;2022-10-10T10:54:57;9.13;;;4.80;;
23406;SDS011;11876;53.438;18.942;2022-10-10T11:00:19;5.35;;;3.90;;
23406;SDS011;11876;53.438;18.942;2022-10-10T11:05:48;6.20;;;3.75;;
23406;SDS011;11876;53.438;18.942;2022-10-10T11:16:02;5.68;;;3.55;;
23406;SDS011;11876;53.438;18.942;2022-10-10T11:21:31;6.07;;;4.05;;
23406;SDS011;11876;53.438;18.942;2022-10-10T11:26:36;5.40;;;3.72;;
23406;SDS011;11876;53.438;18.942;2022-10-10T11:31:43;7.60;;;3.72;;
23406;SDS011;11876;53.438;18.942;2022-10-10T11:36:48;5.63;;;4.00;;
23406;SDS011;11876;53.438;18.942;2022-10-10T11:41:59;5.68;;;3.78;;
23406;SDS011;11876;53.438;18.942;2022-10-10T11:47:13;5.40;;;4.30;;
23406;SDS011;11876;53.438;18.942;2022-10-10T11:58:22;8.07;;;3.90;;
23406;SDS011;11876;53.438;18.942;2022-10-10T12:08:33;10.65;;;7.03;;
23406;SDS011;11876;53.438;18.942;2022-10-10T12:13:40;8.10;;;7.05;;
23406;SDS011;11876;53.438;18.942;2022-10-10T12:24:23;12.15;;;10.85;;
23406;SDS011;11876;53.438;18.942;2022-10-10T12:34:58;19.88;;;10.90;;
23406;SDS011;11876;53.438;18.942;2022-10-10T12:50:32;21.80;;;12.82;;
23406;SDS011;11876;53.438;18.942;2022-10-10T13:00:48;9.70;;;7.45;;
23406;SDS011;11876;53.438;18.942;2022-10-10T13:05:50;8.90;;;5.00;;
23406;SDS011;11876;53.438;18.942;2022-10-10T13:11:00;18.42;;;11.02;;
23406;SDS011;11876;53.438;18.942;2022-10-10T13:16:07;12.85;;;7.35;;
23406;SDS011;11876;53.438;18.942;2022-10-10T13:21:14;20.10;;;13.50;;
23406;SDS011;11876;53.438;18.942;2022-10-10T13:26:25;18.02;;;12.27;;
23406;SDS011;11876;53.438;18.942;2022-10-10T13:31:32;12.00;;;5.97;;
23406;SDS011;11876;53.438;18.942;2022-10-10T13:36:35;20.13;;;14.35;;
23406;SDS011;11876;53.438;18.942;2022-10-10T13:41:37;11.55;;;6.72;;
23406;SDS011;11876;53.438;18.942;2022-10-10T13:46:40;12.30;;;5.35;;
23406;SDS011;11876;53.438;18.942;2022-10-10T13:51:43;9.55;;;5.78;;
23406;SDS011;11876;53.438;18.942;2022-10-10T13:56:47;11.77;;;6.32;;
23406;SDS011;11876;53.438;18.942;2022-10-10T14:01:53;8.52;;;5.72;;
23406;SDS011;11876;53.438;18.942;2022-10-10T14:12:16;8.85;;;6.22;;
23406;SDS011;11876;53.438;18.942;2022-10-10T14:17:21;9.63;;;4.80;;
23406;SDS011;11876;53.438;18.942;2022-10-10T14:22:24;6.47;;;4.55;;
23406;SDS011;11876;53.438;18.942;2022-10-10T14:27:27;10.65;;;5.80;;
23406;SDS011;11876;53.438;18.942;2022-10-10T14:32:30;5.75;;;4.45;;
23406;SDS011;11876;53.438;18.942;2022-10-10T14:37:32;15.93;;;8.98;;
23406;SDS011;11876;53.438;18.942;2022-10-10T14:42:39;10.52;;;5.95;;
23406;SDS011;11876;53.438;18.942;2022-10-10T14:47:41;8.10;;;5.40;;
23406;SDS011;11876;53.438;18.942;2022-10-10T14:52:44;6.68;;;4.68;;
23406;SDS011;11876;53.438;18.942;2022-10-10T14:57:46;6.20;;;4.50;;
23406;SDS011;11876;53.438;18.942;2022-10-10T15:02:49;9.10;;;5.22;;
23406;SDS011;11876;53.438;18.942;2022-10-10T15:07:51;18.73;;;6.15;;
23406;SDS011;11876;53.438;18.942;2022-10-10T15:12:54;6.53;;;4.88;;
23406;SDS011;11876;53.438;18.942;2022-10-10T15:17:57;5.65;;;4.85;;
23406;SDS011;11876;53.438;18.942;2022-10-10T15:23:00;9.93;;;6.55;;
23406;SDS011;11876;53.438;18.942;2022-10-10T15:28:04;7.95;;;5.45;;
23406;SDS011;11876;53.438;18.942;2022-10-10T15:33:07;6.15;;;4.50;;
23406;SDS011;11876;53.438;18.942;2022-10-10T15:38:09;19.15;;;6.85;;
23406;SDS011;11876;53.438;18.942;2022-10-10T15:43:11;8.85;;;5.65;;
23406;SDS011;11876;53.438;18.942;2022-10-10T15:48:16;5.65;;;4.68;;
23406;SDS011;11876;53.438;18.942;2022-10-10T15:53:18;5.55;;;4.53;;
23406;SDS011;11876;53.438;18.942;2022-10-10T15:58:21;7.03;;;4.80;;
23406;SDS011;11876;53.438;18.942;2022-10-10T16:03:23;5.82;;;4.50;;
23406;SDS011;11876;53.438;18.942;2022-10-10T16:08:26;7.22;;;4.57;;
23406;SDS011;11876;53.438;18.942;2022-10-10T16:13:28;8.60;;;5.38;;
23406;SDS011;11876;53.438;18.942;2022-10-10T16:18:31;9.35;;;5.15;;
23406;SDS011;11876;53.438;18.942;2022-10-10T16:23:40;7.18;;;5.15;;
23406;SDS011;11876;53.438;18.942;2022-10-10T16:28:43;7.38;;;5.15;;
23406;SDS011;11876;53.438;18.942;2022-10-10T16:33:46;7.07;;;4.88;;
23406;SDS011;11876;53.438;18.942;2022-10-10T16:38:49;8.10;;;4.85;;
23406;SDS011;11876;53.438;18.942;2022-10-10T16:43:54;7.63;;;5.68;;
23406;SDS011;11876;53.438;18.942;2022-10-10T16:48:57;6.85;;;5.28;;
23406;SDS011;11876;53.438;18.942;2022-10-10T16:54:01;8.07;;;5.00;;
23406;SDS011;11876;53.438;18.942;2022-10-10T16:59:03;8.27;;;5.50;;
23406;SDS011;11876;53.438;18.942;2022-10-10T17:04:06;10.15;;;5.85;;
23406;SDS011;11876;53.438;18.942;2022-10-10T17:09:09;7.70;;;5.80;;
23406;SDS011;11876;53.438;18.942;2022-10-10T17:14:12;7.95;;;5.57;;
23406;SDS011;11876;53.438;18.942;2022-10-10T17:19:14;9.18;;;6.63;;
23406;SDS011;11876;53.438;18.942;2022-10-10T17:24:16;10.93;;;6.05;;
23406;SDS011;11876;53.438;18.942;2022-10-10T17:29:19;12.20;;;7.47;;
23406;SDS011;11876;53.438;18.942;2022-10-10T17:34:23;8.68;;;5.38;;
23406;SDS011;11876;53.438;18.942;2022-10-10T17:39:25;7.78;;;6.13;;
23406;SDS011;11876;53.438;18.942;2022-10-10T17:44:28;9.15;;;6.22;;
23406;SDS011;11876;53.438;18.942;2022-10-10T17:49:30;7.70;;;5.30;;
23406;SDS011;11876;53.438;18.942;2022-10-10T17:54:33;5.60;;;5.03;;
23406;SDS011;11876;53.438;18.942;2022-10-10T17:59:36;7.03;;;5.03;;
23406;SDS011;11876;53.438;18.942;2022-10-10T18:04:38;10.45;;;5.78;;
23406;SDS011;11876;53.438;18.942;2022-10-10T18:09:42;5.68;;;4.97;;
23406;SDS011;11876;53.438;18.942;2022-10-10T18:14:44;6.50;;;5.18;;
23406;SDS011;11876;53.438;18.942;2022-10-10T18:19:47;6.15;;;4.63;;
23406;SDS011;11876;53.438;18.942;2022-10-10T18:24:49;5.95;;;3.92;;
23406;SDS011;11876;53.438;18.942;2022-10-10T18:29:51;9.43;;;5.38;;
23406;SDS011;11876;53.438;18.942;2022-10-10T18:34:54;5.60;;;4.53;;
23406;SDS011;11876;53.438;18.942;2022-10-10T18:39:56;8.57;;;4.70;;
23406;SDS011;11876;53.438;18.942;2022-10-10T18:44:59;6.78;;;5.60;;
23406;SDS011;11876;53.438;18.942;2022-10-10T18:50:01;7.22;;;5.13;;
23406;SDS011;11876;53.438;18.942;2022-10-10T18:55:04;8.35;;;5.07;;
23406;SDS011;11876;53.438;18.942;2022-10-10T19:00:07;5.07;;;4.55;;
23406;SDS011;11876;53.438;18.942;2022-10-10T19:05:10;7.60;;;5.30;;
23406;SDS011;11876;53.438;18.942;2022-10-10T19:10:12;7.07;;;5.40;;
23406;SDS011;11876;53.438;18.942;2022-10-10T19:15:14;6.32;;;5.00;;
23406;SDS011;11876;53.438;18.942;2022-10-10T19:20:17;6.93;;;5.00;;
23406;SDS011;11876;53.438;18.942;2022-10-10T19:25:19;5.53;;;4.95;;
23406;SDS011;11876;53.438;18.942;2022-10-10T19:30:22;8.27;;;5.10;;
23406;SDS011;11876;53.438;18.942;2022-10-10T19:35:24;8.00;;;5.25;;
23406;SDS011;11876;53.438;18.942;2022-10-10T19:40:27;8.52;;;5.05;;
23406;SDS011;11876;53.438;18.942;2022-10-10T19:45:29;5.53;;;4.63;;
23406;SDS011;11876;53.438;18.942;2022-10-10T19:50:31;7.32;;;5.38;;
23406;SDS011;11876;53.438;18.942;2022-10-10T19:55:34;7.07;;;5.43;;
23406;SDS011;11876;53.438;18.942;2022-10-10T20:00:37;8.32;;;4.88;;
23406;SDS011;11876;53.438;18.942;2022-10-10T20:05:39;7.32;;;4.28;;
23406;SDS011;11876;53.438;18.942;2022-10-10T20:10:42;6.65;;;5.60;;
23406;SDS011;11876;53.438;18.942;2022-10-10T20:15:45;6.70;;;5.47;;
23406;SDS011;11876;53.438;18.942;2022-10-10T20:20:50;9.13;;;5.88;;
23406;SDS011;11876;53.438;18.942;2022-10-10T20:25:53;8.02;;;5.55;;
23406;SDS011;11876;53.438;18.942;2022-10-10T20:30:55;7.00;;;4.90;;
23406;SDS011;11876;53.438;18.942;2022-10-10T20:35:59;8.13;;;5.20;;
23406;SDS011;11876;53.438;18.942;2022-10-10T20:41:02;7.18;;;5.18;;
23406;SDS011;11876;53.438;18.942;2022-10-10T20:46:09;8.15;;;5.47;;
23406;SDS011;11876;53.438;18.942;2022-10-10T20:51:14;8.05;;;6.07;;
23406;SDS011;11876;53.438;18.942;2022-10-10T20:56:16;8.65;;;5.97;;
23406;SDS011;11876;53.438;18.942;2022-10-10T21:01:20;10.50;;;6.28;;
23406;SDS011;11876;53.438;18.942;2022-10-10T21:06:25;7.60;;;6.65;;
23406;SDS011;11876;53.438;18.942;2022-10-10T21:11:29;8.02;;;6.25;;
23406;SDS011;11876;53.438;18.942;2022-10-10T21:16:33;8.95;;;6.63;;
23406;SDS011;11876;53.438;18.942;2022-10-10T21:21:37;11.40;;;6.35;;
23406;SDS011;11876;53.438;18.942;2022-10-10T21:26:40;8.05;;;6.93;;
23406;SDS011;11876;53.438;18.942;2022-10-10T21:31:43;11.13;;;7.18;;
23406;SDS011;11876;53.438;18.942;2022-10-10T21:36:46;9.60;;;6.68;;
23406;SDS011;11876;53.438;18.942;2022-10-10T21:41:48;8.02;;;6.53;;
23406;SDS011;11876;53.438;18.942;2022-10-10T21:46:51;10.95;;;7.57;;
23406;SDS011;11876;53.438;18.942;2022-10-10T21:51:53;9.45;;;7.03;;
23406;SDS011;11876;53.438;18.942;2022-10-10T21:56:55;10.93;;;7.75;;
23406;SDS011;11876;53.438;18.942;2022-10-10T22:01:58;10.13;;;6.93;;
23406;SDS011;11876;53.438;18.942;2022-10-10T22:07:00;8.30;;;6.78;;
23406;SDS011;11876;53.438;18.942;2022-10-10T22:12:05;10.20;;;7.35;;
23406;SDS011;11876;53.438;18.942;2022-10-10T22:17:08;11.95;;;7.97;;
23406;SDS011;11876;53.438;18.942;2022-10-10T22:22:10;10.48;;;6.90;;
23406;SDS011;11876;53.438;18.942;2022-10-10T22:27:13;10.95;;;7.70;;
23406;SDS011;11876;53.438;18.942;2022-10-10T22:32:16;17.77;;;8.35;;
23406;SDS011;11876;53.438;18.942;2022-10-10T22:37:18;10.45;;;8.05;;
23406;SDS011;11876;53.438;18.942;2022-10-10T22:42:21;9.85;;;7.45;;
23406;SDS011;11876;53.438;18.942;2022-10-10T22:47:23;9.30;;;7.03;;
23406;SDS011;11876;53.438;18.942;2022-10-10T22:52:25;11.88;;;7.55;;
23406;SDS011;11876;53.438;18.942;2022-10-10T22:57:28;9.75;;;7.55;;
23406;SDS011;11876;53.438;18.942;2022-10-10T23:02:30;11.60;;;7.07;;
23406;SDS011;11876;53.438;18.942;2022-10-10T23:07:32;14.55;;;8.18;;
23406;SDS011;11876;53.438;18.942;2022-10-10T23:12:35;10.00;;;7.07;;
23406;SDS011;11876;53.438;18.942;2022-10-10T23:17:38;13.02;;;7.60;;
23406;SDS011;11876;53.438;18.942;2022-10-10T23:22:40;11.70;;;8.43;;
23406;SDS011;11876;53.438;18.942;2022-10-10T23:27:43;12.23;;;7.72;;
23406;SDS011;11876;53.438;18.942;2022-10-10T23:32:45;10.85;;;8.05;;
23406;SDS011;11876;53.438;18.942;2022-10-10T23:37:47;11.82;;;8.05;;
23406;SDS011;11876;53.438;18.942;2022-10-10T23:42:50;13.18;;;8.60;;
23406;SDS011;11876;53.438;18.942;2022-10-10T23:47:55;13.10;;;9.02;;
23406;SDS011;11876;53.438;18.942;2022-10-10T23:52:57;12.57;;;9.23;;
23406;SDS011;11876;53.438;18.942;2022-10-10T23:58:00;12.68;;;9.40;;
